Terminal Aerodrome Forecast
Issued by NWS

Home | Current Version | Previous Version | Text Only | Print | Product List | Glossary On
Versions: 1 2 3 4 5 6 7 8 9 10 11 12 13 14 15 16
000
FTUS45 KVEF 021800 AAA
TAFVGT
TAF AMD
KVGT 021826Z 0218/0318 14008KT P6SM VCSH FEW012 BKN050
     FM022000 22014G24KT P6SM SCT040 BKN070
     FM030200 24009KT P6SM FEW050 BKN070=

USA.gov is the U.S. government's official web portal to all federal, state and local government web resources and services.